Time;durP1;ratioP1;P1;durP2;ratioP2;P2;SDS_P1;SDS_P2;PMS_P1;PMS_P2;Temp;Humidity;BMP_temperature;BMP_pressure;BME280_temperature;BME280_humidity;BME280_pressure;Samples;Min_cycle;Max_cycle;Signal;HPM_P1;HPM_P2
2023/07/13 00:00:43;;;;;;;13.10;5.70;;;20.60;99.90;;;;;;4407918;28;660792;-70
2023/07/13 00:03:34;;;;;;;9.80;5.83;;;20.30;99.90;;;;;;4383100;28;659710;-70
2023/07/13 00:06:23;;;;;;;9.53;5.47;;;20.00;99.90;;;;;;4380995;28;658772;-70
2023/07/13 00:09:11;;;;;;;8.87;6.03;;;19.90;99.90;;;;;;4391183;28;658680;-70
2023/07/13 00:11:58;;;;;;;11.07;5.57;;;19.80;99.90;;;;;;4410558;28;660204;-70
2023/07/13 00:14:45;;;;;;;14.37;6.00;;;19.60;99.90;;;;;;4390934;28;660257;-69
2023/07/13 00:17:33;;;;;;;8.43;5.83;;;19.50;99.90;;;;;;4404297;28;661757;-71
2023/07/13 00:20:21;;;;;;;9.80;6.67;;;19.50;99.90;;;;;;4404271;28;658462;-69
2023/07/13 00:23:10;;;;;;;13.47;7.40;;;19.40;99.90;;;;;;4405343;28;658905;-70
2023/07/13 00:25:57;;;;;;;13.73;8.23;;;19.40;99.90;;;;;;4381033;28;660981;-70
2023/07/13 00:28:44;;;;;;;14.47;7.50;;;19.20;99.90;;;;;;4408564;28;659664;-71
2023/07/13 00:31:32;;;;;;;13.07;7.90;;;19.20;99.90;;;;;;4376162;28;659966;-70
2023/07/13 00:34:19;;;;;;;13.63;8.07;;;19.20;99.90;;;;;;4402283;28;659959;-71
2023/07/13 00:37:07;;;;;;;17.33;8.00;;;19.20;99.90;;;;;;4384575;28;660183;-70
2023/07/13 00:39:56;;;;;;;16.33;8.33;;;19.10;99.90;;;;;;4408866;28;659767;-70
2023/07/13 00:42:43;;;;;;;20.57;8.13;;;19.10;99.90;;;;;;4377295;28;661021;-71
2023/07/13 00:46:07;;;;;;;14.10;7.07;;;19.10;99.90;;;;;;4393227;28;659913;-70
2023/07/13 00:48:55;;;;;;;14.20;7.27;;;19.00;99.90;;;;;;4382105;28;659826;-72
2023/07/13 00:51:45;;;;;;;16.17;7.53;;;19.00;99.90;;;;;;4382842;28;661138;-71
2023/07/13 00:54:34;;;;;;;13.00;7.93;;;19.00;99.90;;;;;;4384600;28;661111;-72
2023/07/13 00:57:22;;;;;;;17.03;7.73;;;19.00;99.90;;;;;;4386814;28;659728;-72
2023/07/13 01:00:11;;;;;;;19.50;7.60;;;18.90;99.90;;;;;;4394481;28;659944;-71
2023/07/13 01:02:59;;;;;;;15.37;7.90;;;18.90;99.90;;;;;;4380678;28;660180;-71
2023/07/13 01:05:46;;;;;;;11.70;7.20;;;18.90;99.90;;;;;;4383673;28;659830;-71
2023/07/13 01:08:33;;;;;;;14.37;7.53;;;18.90;99.90;;;;;;4408184;28;660529;-72
2023/07/13 01:11:21;;;;;;;11.97;6.83;;;18.90;99.90;;;;;;4385784;28;659898;-70
2023/07/13 01:14:10;;;;;;;12.27;7.13;;;18.80;99.90;;;;;;4407813;28;660384;-72
2023/07/13 01:17:00;;;;;;;11.03;6.80;;;18.70;99.90;;;;;;4379562;28;660387;-72
2023/07/13 01:19:47;;;;;;;11.40;7.30;;;18.80;99.90;;;;;;4384718;28;660751;-71
2023/07/13 01:22:35;;;;;;;9.00;6.37;;;18.80;99.90;;;;;;4409307;28;659783;-71
2023/07/13 01:25:22;;;;;;;11.10;6.20;;;18.70;99.90;;;;;;4382259;28;659372;-71
2023/07/13 01:28:10;;;;;;;11.13;5.80;;;18.70;99.90;;;;;;4403326;28;660086;-69
2023/07/13 01:30:58;;;;;;;9.67;6.17;;;18.70;99.90;;;;;;4406855;28;660309;-71
2023/07/13 01:33:45;;;;;;;15.53;6.23;;;18.60;99.90;;;;;;4384681;28;659310;-70
2023/07/13 01:36:33;;;;;;;10.53;6.63;;;18.60;99.90;;;;;;4407908;28;660136;-71
2023/07/13 01:39:22;;;;;;;8.13;5.90;;;18.60;99.90;;;;;;4381214;28;659770;-70
2023/07/13 01:42:09;;;;;;;9.13;6.13;;;18.60;99.90;;;;;;4411451;28;658804;-71
2023/07/13 01:44:56;;;;;;;11.13;5.07;;;18.50;99.90;;;;;;4387074;28;658917;-71
2023/07/13 01:47:44;;;;;;;8.03;4.60;;;18.50;99.90;;;;;;4402378;28;660099;-71
2023/07/13 01:50:31;;;;;;;8.23;4.60;;;18.50;99.90;;;;;;4387748;28;658407;-70
2023/07/13 01:53:18;;;;;;;10.87;5.40;;;18.40;99.90;;;;;;4408720;28;658164;-70
2023/07/13 01:56:07;;;;;;;6.50;5.07;;;18.40;99.90;;;;;;4384544;28;660050;-69
2023/07/13 01:58:54;;;;;;;8.00;5.47;;;18.40;99.90;;;;;;4405983;28;659658;-71
2023/07/13 02:01:41;;;;;;;6.30;5.13;;;18.20;99.90;;;;;;4386247;28;658629;-70
2023/07/13 02:04:28;;;;;;;8.40;5.60;;;18.20;99.90;;;;;;4409176;28;659955;-71
2023/07/13 02:07:16;;;;;;;10.53;5.80;;;18.20;99.90;;;;;;4381803;28;659033;-71
2023/07/13 02:10:03;;;;;;;11.33;6.30;;;18.10;99.90;;;;;;4400417;28;660988;-70
2023/07/13 02:12:52;;;;;;;9.37;5.47;;;18.10;99.90;;;;;;4388170;28;660210;-70
2023/07/13 02:15:40;;;;;;;12.43;5.87;;;18.10;99.90;;;;;;4401944;28;658866;-71
2023/07/13 02:18:27;;;;;;;9.43;5.77;;;18.10;99.90;;;;;;4383221;28;660761;-71
2023/07/13 02:21:15;;;;;;;11.30;5.87;;;18.10;99.90;;;;;;4406051;28;658496;-69
2023/07/13 02:24:02;;;;;;;11.53;7.33;;;18.00;99.90;;;;;;4405992;28;661450;-71
2023/07/13 02:26:49;;;;;;;11.37;6.93;;;18.00;99.90;;;;;;4400455;28;659316;-70
2023/07/13 02:29:38;;;;;;;8.17;5.83;;;17.90;99.90;;;;;;4383958;28;660635;-71
2023/07/13 02:32:26;;;;;;;11.43;6.97;;;17.90;99.90;;;;;;4388494;28;659014;-70
2023/07/13 02:35:13;;;;;;;13.87;5.80;;;17.90;99.90;;;;;;4406483;28;661224;-70
2023/07/13 02:38:00;;;;;;;61.63;7.30;;;17.90;99.90;;;;;;4388182;28;660751;-70
2023/07/13 02:40:48;;;;;;;10.70;6.77;;;17.80;99.90;;;;;;4408672;28;660908;-71
2023/07/13 02:43:35;;;;;;;8.80;6.87;;;17.80;99.90;;;;;;4400331;28;659719;-69
2023/07/13 02:46:25;;;;;;;10.43;7.43;;;17.80;99.90;;;;;;4415499;28;659056;-71
2023/07/13 02:49:12;;;;;;;10.47;7.33;;;17.80;99.90;;;;;;4385185;28;660230;-71
2023/07/13 02:52:00;;;;;;;10.63;7.47;;;17.80;99.90;;;;;;4403768;28;660075;-70
2023/07/13 02:54:47;;;;;;;11.43;7.93;;;17.80;99.90;;;;;;4413312;28;660015;-71
2023/07/13 02:57:34;;;;;;;13.37;7.90;;;17.80;99.90;;;;;;4404533;28;660068;-72
2023/07/13 03:00:22;;;;;;;14.97;9.07;;;17.80;99.90;;;;;;4382778;28;660595;-71
2023/07/13 03:03:10;;;;;;;98.30;10.40;;;17.70;99.90;;;;;;4400799;28;659741;-71
2023/07/13 03:05:59;;;;;;;30.00;8.70;;;17.70;99.90;;;;;;4375671;28;661598;-71
2023/07/13 03:08:47;;;;;;;87.53;8.30;;;17.70;99.90;;;;;;4390268;28;659864;-70
2023/07/13 03:11:34;;;;;;;9.90;7.93;;;17.60;99.90;;;;;;4408834;28;660034;-71
2023/07/13 03:14:21;;;;;;;11.47;8.60;;;17.50;99.90;;;;;;4392464;28;658689;-71
2023/07/13 03:17:08;;;;;;;14.23;10.43;;;17.50;99.90;;;;;;4405751;28;660114;-71
2023/07/13 03:19:57;;;;;;;14.43;8.80;;;17.60;99.90;;;;;;4381455;28;661293;-70
2023/07/13 03:22:44;;;;;;;12.38;8.63;;;17.60;99.90;;;;;;4408018;28;660236;-71
2023/07/13 03:25:32;;;;;;;10.73;7.83;;;17.50;99.90;;;;;;4385710;28;659956;-71
2023/07/13 03:28:19;;;;;;;14.70;8.50;;;17.50;99.90;;;;;;4409152;28;659557;-70
2023/07/13 03:31:07;;;;;;;12.40;9.07;;;17.50;99.90;;;;;;4388278;28;660582;-71
2023/07/13 03:33:54;;;;;;;11.60;8.47;;;17.60;99.90;;;;;;4403427;28;659522;-71
2023/07/13 03:36:43;;;;;;;10.07;8.07;;;17.70;99.90;;;;;;4388972;28;660216;-70
2023/07/13 03:39:30;;;;;;;11.43;8.60;;;17.80;99.90;;;;;;4397954;28;659741;-70
2023/07/13 03:42:17;;;;;;;10.93;8.27;;;17.80;99.90;;;;;;4409126;28;660914;-71
2023/07/13 03:45:06;;;;;;;15.23;8.30;;;17.90;99.90;;;;;;4401858;28;659681;-70
2023/07/13 03:47:53;;;;;;;14.17;9.57;;;17.90;99.90;;;;;;4413360;28;660192;-71
2023/07/13 03:50:41;;;;;;;12.83;8.50;;;18.00;99.90;;;;;;4378262;28;659903;-71
2023/07/13 03:53:29;;;;;;;10.13;8.50;;;18.00;99.90;;;;;;4407492;28;660710;-71
2023/07/13 03:56:17;;;;;;;14.10;9.30;;;18.10;99.90;;;;;;4388126;28;660085;-71
2023/07/13 03:59:04;;;;;;;13.97;10.57;;;18.30;99.90;;;;;;4404880;28;659709;-71
2023/07/13 04:01:51;;;;;;;13.03;9.10;;;18.40;99.90;;;;;;4387663;28;660725;-71
2023/07/13 04:04:39;;;;;;;13.43;9.67;;;18.40;99.90;;;;;;4407884;28;661083;-71
2023/07/13 04:07:27;;;;;;;15.80;10.27;;;18.40;99.90;;;;;;4389813;28;660735;-71
2023/07/13 04:10:15;;;;;;;14.33;11.07;;;18.50;99.90;;;;;;4402749;28;660571;-71
2023/07/13 04:13:03;;;;;;;21.83;10.83;;;18.50;99.90;;;;;;4382334;28;661540;-71
2023/07/13 04:15:50;;;;;;;16.33;10.37;;;18.70;99.90;;;;;;4398143;28;660550;-70
2023/07/13 04:18:37;;;;;;;20.67;10.60;;;18.70;99.90;;;;;;4404287;28;661061;-70
2023/07/13 04:21:25;;;;;;;15.07;10.60;;;18.60;99.90;;;;;;4401825;28;660527;-71
2023/07/13 04:24:12;;;;;;;20.27;10.10;;;18.70;99.90;;;;;;4384566;28;661909;-71
2023/07/13 04:27:02;;;;;;;18.67;10.87;;;18.80;99.90;;;;;;4401756;28;660894;-71
2023/07/13 04:29:50;;;;;;;15.10;10.63;;;18.90;99.90;;;;;;4400979;28;660702;-70
2023/07/13 04:32:37;;;;;;;17.40;9.97;;;18.90;99.90;;;;;;4410397;28;661284;-71
2023/07/13 04:35:24;;;;;;;13.37;9.87;;;19.10;99.90;;;;;;4407581;28;659156;-70
2023/07/13 04:38:12;;;;;;;13.80;9.43;;;19.10;99.90;;;;;;4384951;28;660405;-71
2023/07/13 04:41:00;;;;;;;14.07;9.57;;;19.20;99.90;;;;;;4408821;28;659523;-71
2023/07/13 04:43:49;;;;;;;15.20;9.33;;;19.30;99.90;;;;;;4379498;28;660029;-70
2023/07/13 04:46:37;;;;;;;14.13;9.57;;;19.40;99.90;;;;;;4383748;28;659621;-70
2023/07/13 04:49:24;;;;;;;20.07;10.90;;;19.60;99.90;;;;;;4406121;28;660545;-71
2023/07/13 04:52:11;;;;;;;15.87;9.80;;;19.70;99.90;;;;;;4386882;28;660708;-71
2023/07/13 04:54:59;;;;;;;14.97;10.30;;;19.80;99.90;;;;;;4410397;28;660432;-71
2023/07/13 04:57:46;;;;;;;12.47;8.57;;;19.80;99.90;;;;;;4388775;28;660795;-70
2023/07/13 05:00:34;;;;;;;16.63;10.17;;;19.90;99.90;;;;;;4400662;28;659669;-70
2023/07/13 05:03:22;;;;;;;12.80;8.93;;;20.00;99.90;;;;;;4384339;28;660720;-71
2023/07/13 05:06:10;;;;;;;14.30;8.73;;;20.20;99.90;;;;;;4396523;28;659584;-71
2023/07/13 05:08:57;;;;;;;16.60;9.13;;;20.30;99.90;;;;;;4386899;28;660135;-71
2023/07/13 05:11:45;;;;;;;12.23;8.83;;;20.40;99.90;;;;;;4401817;28;660484;-70
2023/07/13 05:14:32;;;;;;;13.23;8.87;;;20.50;99.90;;;;;;4406079;28;659913;-71
2023/07/13 05:17:21;;;;;;;12.27;9.10;;;20.70;99.90;;;;;;4406253;28;659459;-70
2023/07/13 05:20:09;;;;;;;17.13;8.90;;;20.70;99.90;;;;;;4384911;28;660862;-70
2023/07/13 05:22:56;;;;;;;12.90;9.33;;;20.70;99.90;;;;;;4382512;28;660097;-71
2023/07/13 05:25:43;;;;;;;14.80;9.40;;;20.70;99.90;;;;;;4406220;28;660213;-69
2023/07/13 05:28:32;;;;;;;13.10;8.57;;;20.50;99.90;;;;;;4383677;28;660193;-71
2023/07/13 05:31:19;;;;;;;12.43;7.47;;;20.60;99.90;;;;;;4401200;28;659864;-72
2023/07/13 05:34:08;;;;;;;8.80;6.93;;;20.60;99.90;;;;;;4384536;28;659557;-72
2023/07/13 05:36:55;;;;;;;11.70;7.03;;;20.60;99.90;;;;;;4389390;28;658827;-69
2023/07/13 05:39:43;;;;;;;8.73;7.30;;;20.80;99.90;;;;;;4398717;28;661549;-70
2023/07/13 05:42:31;;;;;;;8.10;6.10;;;21.10;99.90;;;;;;4398399;28;658826;-70
2023/07/13 05:45:18;;;;;;;9.93;6.27;;;21.40;99.90;;;;;;4410339;28;659545;-71
2023/07/13 05:48:05;;;;;;;7.87;6.07;;;21.60;99.90;;;;;;4394323;28;658646;-69
2023/07/13 05:50:54;;;;;;;7.50;5.50;;;21.80;99.90;;;;;;4408339;28;659871;-71
2023/07/13 05:53:41;;;;;;;10.23;5.43;;;21.80;99.90;;;;;;4388635;28;658497;-71
2023/07/13 05:56:28;;;;;;;11.53;5.80;;;22.10;99.90;;;;;;4399394;28;660270;-69
2023/07/13 05:59:16;;;;;;;5.97;5.33;;;22.30;99.90;;;;;;4385319;28;659594;-71
2023/07/13 06:02:03;;;;;;;9.30;5.67;;;22.40;99.90;;;;;;4408829;28;659307;-71
2023/07/13 06:04:50;;;;;;;12.97;6.00;;;22.60;99.90;;;;;;4383692;28;659094;-71
2023/07/13 06:07:39;;;;;;;9.40;4.80;;;22.80;99.90;;;;;;4398124;28;660576;-71
2023/07/13 06:10:26;;;;;;;5.35;4.07;;;22.80;99.90;;;;;;4385791;28;658837;-71
2023/07/13 06:13:13;;;;;;;7.47;4.80;;;22.80;99.90;;;;;;4407960;28;659309;-70
2023/07/13 06:16:03;;;;;;;6.20;4.00;;;23.10;99.90;;;;;;4385708;28;658710;-70
2023/07/13 06:18:51;;;;;;;4.47;3.77;;;23.30;99.90;;;;;;4386918;28;659459;-71
2023/07/13 06:21:38;;;;;;;4.57;3.45;;;23.40;99.90;;;;;;4409079;28;659546;-69
2023/07/13 06:24:26;;;;;;;4.80;3.75;;;23.30;99.90;;;;;;4385429;28;658939;-68
2023/07/13 06:27:14;;;;;;;5.93;3.97;;;23.30;99.90;;;;;;4406502;28;658902;-71
2023/07/13 06:30:01;;;;;;;3.70;3.25;;;23.30;99.90;;;;;;4378644;28;658447;-70
2023/07/13 06:32:48;;;;;;;6.18;3.72;;;23.20;99.90;;;;;;4392791;28;660049;-71
2023/07/13 06:35:35;;;;;;;7.43;3.83;;;23.20;99.90;;;;;;4384615;28;658951;-70
2023/07/13 06:38:22;;;;;;;7.57;3.83;;;23.40;99.90;;;;;;4398981;28;659017;-70
2023/07/13 06:41:12;;;;;;;8.43;4.15;;;23.50;99.90;;;;;;4400915;28;658930;-70
2023/07/13 06:43:59;;;;;;;5.63;3.80;;;23.30;99.90;;;;;;4402046;28;658708;-70
2023/07/13 06:46:46;;;;;;;7.85;3.92;;;23.20;99.90;;;;;;4390361;28;658392;-70
2023/07/13 06:49:34;;;;;;;6.65;4.22;;;23.40;99.90;;;;;;4404293;28;660939;-70
2023/07/13 06:52:21;;;;;;;6.40;4.80;;;23.30;99.90;;;;;;4386417;28;658865;-69
2023/07/13 06:55:09;;;;;;;6.75;4.95;;;23.10;99.90;;;;;;4402159;28;659433;-70
2023/07/13 06:57:58;;;;;;;7.68;5.43;;;23.30;99.90;;;;;;4382203;28;658623;-69
2023/07/13 07:00:45;;;;;;;9.80;5.80;;;23.30;99.90;;;;;;4396369;28;658563;-69
2023/07/13 07:03:32;;;;;;;7.63;5.40;;;23.60;99.90;;;;;;4407384;28;659138;-69
2023/07/13 07:06:23;;;;;;;11.52;5.60;;;23.70;99.90;;;;;;4401107;28;658298;-69
2023/07/13 07:09:10;;;;;;;6.05;5.25;;;23.90;99.90;;;;;;4385341;28;659687;-70
2023/07/13 07:11:57;;;;;;;8.48;5.45;;;24.10;99.90;;;;;;4398975;28;658447;-69
2023/07/13 07:14:46;;;;;;;10.55;5.50;;;24.30;99.90;;;;;;4402518;28;658587;-70
2023/07/13 07:17:33;;;;;;;6.55;5.22;;;24.60;99.90;;;;;;4375446;28;661004;-70
2023/07/13 07:20:21;;;;;;;7.93;4.40;;;24.60;99.90;;;;;;4385928;28;658904;-69
2023/07/13 07:23:08;;;;;;;5.53;3.90;;;24.90;99.90;;;;;;4399875;28;658311;-70
2023/07/13 07:25:55;;;;;;;4.55;3.20;;;24.90;99.90;;;;;;4388282;28;659530;-69
2023/07/13 07:28:42;;;;;;;7.60;3.80;;;24.90;99.90;;;;;;4403101;28;658111;-69
2023/07/13 07:31:31;;;;;;;5.45;3.50;;;25.10;99.90;;;;;;4401696;28;659783;-69
2023/07/13 07:34:18;;;;;;;5.60;3.50;;;25.20;99.90;;;;;;4384918;28;659731;-69
2023/07/13 07:37:06;;;;;;;5.53;4.00;;;25.20;99.90;;;;;;4388486;28;658921;-69
2023/07/13 07:39:53;;;;;;;5.20;3.67;;;25.30;99.90;;;;;;4409274;28;659336;-69
2023/07/13 07:42:40;;;;;;;4.57;3.40;;;25.30;99.90;;;;;;4385715;28;658971;-69
2023/07/13 07:45:27;;;;;;;5.57;3.20;;;25.30;99.90;;;;;;4405663;28;658911;-69
2023/07/13 07:48:16;;;;;;;5.15;3.55;;;25.50;99.90;;;;;;4402312;28;659107;-69
2023/07/13 07:51:04;;;;;;;5.28;3.50;;;25.20;99.90;;;;;;4400207;28;659998;-69
2023/07/13 07:53:51;;;;;;;4.55;3.08;;;25.20;99.90;;;;;;4386142;28;659165;-70
2023/07/13 07:56:38;;;;;;;5.35;3.50;;;24.60;99.90;;;;;;4403092;28;659403;-69
2023/07/13 07:59:25;;;;;;;7.90;3.17;;;24.40;99.90;;;;;;4387226;28;658453;-69
2023/07/13 08:02:13;;;;;;;5.20;3.35;;;24.50;99.90;;;;;;4407134;28;659771;-69
2023/07/13 08:05:02;;;;;;;6.80;3.50;;;24.70;99.90;;;;;;4390086;28;658452;-69
2023/07/13 08:07:49;;;;;;;6.45;3.60;;;24.40;99.90;;;;;;4407015;28;658500;-69
2023/07/13 08:10:37;;;;;;;7.10;3.40;;;24.20;99.90;;;;;;4383786;28;658597;-69
2023/07/13 08:13:24;;;;;;;4.43;3.58;;;24.40;99.90;;;;;;4406650;28;659176;-69
2023/07/13 08:16:11;;;;;;;6.35;3.70;;;24.50;99.90;;;;;;4384746;28;658408;-69
2023/07/13 08:18:58;;;;;;;4.95;3.40;;;24.10;99.90;;;;;;4404022;28;660021;-69
2023/07/13 08:21:48;;;;;;;7.03;3.60;;;24.30;99.90;;;;;;4383583;28;659260;-69
2023/07/13 08:24:36;;;;;;;6.22;3.78;;;24.30;99.90;;;;;;4383882;28;659010;-69
2023/07/13 08:27:23;;;;;;;6.07;3.70;;;24.50;99.90;;;;;;4401547;28;659373;-69
2023/07/13 08:30:11;;;;;;;7.35;3.55;;;24.70;99.90;;;;;;4384543;28;658927;-69
2023/07/13 08:32:58;;;;;;;5.93;3.20;;;24.70;99.90;;;;;;4401375;28;659276;-69
2023/07/13 08:35:47;;;;;;;4.60;3.15;;;24.90;99.90;;;;;;4383204;28;658500;-69
2023/07/13 08:38:35;;;;;;;5.70;3.65;;;24.90;99.90;;;;;;4403324;28;659237;-69
2023/07/13 08:41:23;;;;;;;5.43;3.63;;;24.90;99.90;;;;;;4378913;28;659365;-69
2023/07/13 08:44:17;;;;;;;5.47;3.65;;;24.90;99.90;;;;;;4381477;28;658441;-70
2023/07/13 08:47:05;;;;;;;4.68;3.45;;;24.30;99.90;;;;;;4378835;28;658512;-70
2023/07/13 08:49:52;;;;;;;6.38;4.25;;;24.30;99.90;;;;;;4377896;28;659869;-70
2023/07/13 08:52:40;;;;;;;8.70;5.10;;;24.50;99.90;;;;;;4404398;28;659603;-69
2023/07/13 08:55:31;;;;;;;11.65;5.05;;;24.30;99.90;;;;;;4384092;28;659770;-69
2023/07/13 08:58:18;;;;;;;11.70;4.55;;;24.40;99.90;;;;;;4380531;28;660188;-70
2023/07/13 09:01:12;;;;;;;7.55;4.38;;;24.50;99.90;;;;;;4380022;28;660352;-69
2023/07/13 09:04:03;;;;;;;7.28;4.55;;;24.60;99.90;;;;;;4380249;28;659114;-69
2023/07/13 09:07:00;;;;;;;10.07;4.57;;;24.30;99.90;;;;;;4396186;28;658200;-69
2023/07/13 09:09:56;;;;;;;7.45;4.30;;;24.40;99.90;;;;;;4381207;28;659825;-70
2023/07/13 09:12:56;;;;;;;9.00;4.35;;;24.40;99.90;;;;;;4381116;28;658326;-70
2023/07/13 09:15:44;;;;;;;10.90;4.80;;;24.10;99.90;;;;;;4381846;28;658950;-70
2023/07/13 09:18:34;;;;;;;8.32;4.47;;;23.90;99.90;;;;;;4378538;28;660258;-69
2023/07/13 09:21:24;;;;;;;7.05;4.93;;;23.80;99.90;;;;;;4382806;28;658475;-68
2023/07/13 09:24:37;;;;;;;7.88;5.00;;;23.70;99.90;;;;;;4382690;28;659099;-69
2023/07/13 09:27:26;;;;;;;10.45;4.90;;;23.80;99.90;;;;;;4385349;28;658318;-70
2023/07/13 09:30:25;;;;;;;9.55;4.43;;;23.80;99.90;;;;;;4377451;28;660145;-70
2023/07/13 09:33:12;;;;;;;9.45;4.63;;;23.70;99.90;;;;;;4357131;28;659039;-70
2023/07/13 09:35:59;;;;;;;9.00;4.93;;;23.70;99.90;;;;;;4403545;28;659602;-70
2023/07/13 09:38:46;;;;;;;12.25;5.00;;;23.70;99.90;;;;;;4384853;28;658648;-70
2023/07/13 09:41:38;;;;;;;10.43;4.78;;;23.60;99.90;;;;;;4402727;28;660857;-69
2023/07/13 09:44:30;;;;;;;9.25;5.10;;;23.50;99.90;;;;;;4356433;28;659873;-69
2023/07/13 09:47:23;;;;;;;11.98;5.65;;;23.50;99.90;;;;;;4378749;28;659179;-69
2023/07/13 09:50:16;;;;;;;9.32;5.38;;;23.20;99.90;;;;;;4362468;28;660283;-69
2023/07/13 09:53:03;;;;;;;9.85;5.15;;;22.90;99.90;;;;;;4380026;28;658943;-69
2023/07/13 09:55:50;;;;;;;10.52;5.20;;;22.80;99.90;;;;;;4378463;28;658604;-69
2023/07/13 09:58:37;;;;;;;10.53;4.77;;;22.70;99.90;;;;;;4398485;28;660328;-69
2023/07/13 10:01:36;;;;;;;9.03;4.37;;;22.60;99.90;;;;;;4397344;28;659572;-68
2023/07/13 10:04:29;;;;;;;10.70;4.80;;;22.60;99.90;;;;;;4380114;28;659175;-70
2023/07/13 10:07:18;;;;;;;7.80;4.50;;;22.60;99.90;;;;;;4382022;28;659746;-69
2023/07/13 10:10:14;;;;;;;8.57;4.73;;;22.50;99.90;;;;;;4386180;28;658710;-68
2023/07/13 10:13:04;;;;;;;10.63;4.63;;;22.50;99.90;;;;;;4378796;28;658953;-68
2023/07/13 10:15:51;;;;;;;9.33;4.23;;;22.50;99.90;;;;;;4380313;28;659473;-68
2023/07/13 10:18:43;;;;;;;7.53;3.97;;;22.40;99.90;;;;;;4403031;28;659512;-71
2023/07/13 10:21:34;;;;;;;9.17;4.50;;;22.40;99.90;;;;;;4357163;28;660795;-69
2023/07/13 10:24:23;;;;;;;7.73;4.63;;;22.30;99.90;;;;;;4385346;28;658349;-71
2023/07/13 10:27:14;;;;;;;8.97;4.47;;;22.20;99.90;;;;;;4391275;28;659703;-69
2023/07/13 10:30:03;;;;;;;8.00;5.20;;;22.10;99.90;;;;;;4386006;28;658562;-71
2023/07/13 10:32:50;;;;;;;7.00;4.80;;;22.10;99.90;;;;;;4390692;28;658915;-69
2023/07/13 10:35:37;;;;;;;8.63;4.80;;;22.10;99.90;;;;;;4411194;28;658977;-71
2023/07/13 10:38:28;;;;;;;8.43;4.40;;;21.70;99.90;;;;;;4398396;28;657872;-72
2023/07/13 10:41:17;;;;;;;13.30;5.47;;;21.40;99.90;;;;;;4392318;28;659021;-70
2023/07/13 10:44:05;;;;;;;12.43;5.50;;;21.30;99.90;;;;;;4405003;28;660702;-73
2023/07/13 10:46:52;;;;;;;12.70;7.50;;;21.00;99.90;;;;;;4383709;28;660586;-75
2023/07/13 10:49:39;;;;;;;14.00;8.50;;;20.70;99.90;;;;;;4404105;28;659275;-75
2023/07/13 10:52:44;;;;;;;14.80;8.83;;;20.00;99.90;;;;;;4378119;28;659210;-73
2023/07/13 10:55:35;;;;;;;14.90;7.13;;;19.20;99.90;;;;;;4379751;28;659644;-75
2023/07/13 10:58:23;;;;;;;13.00;5.13;;;18.40;99.90;;;;;;4383008;28;660893;-75
2023/07/13 11:01:11;;;;;;;8.73;4.50;;;17.80;99.90;;;;;;4385680;28;660211;-71
2023/07/13 11:04:02;;;;;;;9.97;4.13;;;17.40;99.90;;;;;;4411356;28;659051;-72
2023/07/13 11:06:51;;;;;;;16.43;4.33;;;17.20;99.90;;;;;;4381451;28;659111;-71
2023/07/13 11:09:39;;;;;;;7.50;3.00;;;16.80;99.90;;;;;;4380029;28;661283;-69
2023/07/13 11:12:53;;;;;;;9.00;3.50;;;16.40;99.90;;;;;;4381224;28;658690;-70
2023/07/13 11:15:45;;;;;;;9.10;3.90;;;16.20;99.90;;;;;;4365602;28;659636;-68
2023/07/13 11:18:32;;;;;;;5.50;3.47;;;16.10;99.90;;;;;;4381012;28;659930;-69
2023/07/13 11:21:21;;;;;;;6.13;3.30;;;16.00;99.90;;;;;;4405805;28;659005;-70
2023/07/13 11:24:16;;;;;;;8.53;3.50;;;16.00;99.90;;;;;;4382288;28;659009;-70
2023/07/13 11:27:11;;;;;;;6.80;3.40;;;15.90;99.90;;;;;;4384761;28;658994;-70
2023/07/13 11:30:19;;;;;;;7.83;3.87;;;15.90;99.90;;;;;;4383220;28;660438;-70
2023/07/13 11:33:13;;;;;;;10.30;4.03;;;15.90;99.90;;;;;;4358041;28;658864;-71
2023/07/13 11:36:01;;;;;;;9.80;3.50;;;15.90;99.90;;;;;;4368993;28;660146;-70
2023/07/13 11:38:52;;;;;;;11.10;3.57;;;16.00;99.90;;;;;;4409497;28;658902;-71
2023/07/13 11:41:44;;;;;;;9.27;3.77;;;16.00;99.90;;;;;;4379787;28;660136;-71
2023/07/13 11:44:33;;;;;;;9.97;3.87;;;16.00;99.90;;;;;;4359651;28;659143;-71
2023/07/13 11:47:22;;;;;;;9.23;3.78;;;16.00;99.90;;;;;;4384447;28;658962;-71
2023/07/13 11:50:19;;;;;;;7.30;3.87;;;16.10;99.90;;;;;;4402729;28;657833;-71
2023/07/13 11:53:09;;;;;;;6.00;3.50;;;15.90;99.90;;;;;;4384462;28;658443;-72
2023/07/13 11:55:56;;;;;;;6.07;3.03;;;16.00;99.90;;;;;;4383087;28;658912;-71
2023/07/13 11:58:43;;;;;;;7.27;3.47;;;16.20;99.90;;;;;;4395892;28;658473;-72
2023/07/13 12:01:32;;;;;;;7.17;3.67;;;16.30;99.90;;;;;;4385792;28;658947;-71
2023/07/13 12:04:23;;;;;;;5.00;2.70;;;16.30;99.90;;;;;;4405484;28;659257;-71
2023/07/13 12:07:16;;;;;;;9.10;2.73;;;16.40;99.90;;;;;;4358305;28;659551;-72
2023/07/13 12:10:04;;;;;;;4.13;2.70;;;16.50;99.90;;;;;;4385003;28;658536;-74
2023/07/13 12:12:53;;;;;;;6.23;2.83;;;16.60;99.90;;;;;;4384233;28;660402;-72
2023/07/13 12:15:42;;;;;;;7.50;2.50;;;16.70;99.90;;;;;;4386918;28;658677;-73
2023/07/13 12:18:30;;;;;;;6.17;2.43;;;16.80;99.90;;;;;;4402796;28;658690;-72
2023/07/13 12:21:19;;;;;;;3.87;2.30;;;16.90;99.90;;;;;;4385809;28;659322;-72
2023/07/13 12:24:13;;;;;;;3.77;2.13;;;17.00;99.90;;;;;;4383672;28;658920;-73
2023/07/13 12:27:02;;;;;;;3.57;2.13;;;17.10;99.90;;;;;;4366842;28;658920;-72
2023/07/13 12:29:54;;;;;;;3.67;2.07;;;17.20;99.90;;;;;;4402562;28;658338;-74
2023/07/13 12:32:42;;;;;;;3.50;1.90;;;17.40;99.90;;;;;;4385569;28;658832;-75
2023/07/13 12:35:32;;;;;;;5.50;1.93;;;17.50;99.90;;;;;;4403053;28;659067;-76
2023/07/13 12:38:22;;;;;;;3.27;1.80;;;17.70;99.90;;;;;;4397894;28;658332;-73
2023/07/13 12:41:09;;;;;;;3.33;2.00;;;17.70;99.90;;;;;;4403523;28;659359;-76
2023/07/13 12:43:56;;;;;;;2.83;2.23;;;17.90;99.90;;;;;;4386504;28;658786;-76
2023/07/13 12:46:56;;;;;;;3.67;1.80;;;18.00;99.90;;;;;;4403282;28;658981;-74
2023/07/13 12:49:44;;;;;;;3.17;2.00;;;18.20;99.90;;;;;;4378462;28;659273;-75
2023/07/13 12:52:33;;;;;;;2.47;1.50;;;18.20;99.90;;;;;;4383020;28;658391;-72
2023/07/13 12:55:22;;;;;;;3.60;2.00;;;18.40;99.90;;;;;;4385509;28;658470;-70
2023/07/13 12:58:14;;;;;;;2.43;1.60;;;18.60;99.90;;;;;;4404984;28;658353;-73
2023/07/13 13:01:02;;;;;;;1.97;1.67;;;18.90;99.90;;;;;;4355369;28;659087;-71
2023/07/13 13:03:51;;;;;;;3.70;1.60;;;19.10;99.90;;;;;;4391396;28;658864;-71
2023/07/13 13:06:40;;;;;;;3.90;1.90;;;19.30;99.90;;;;;;4402209;28;659002;-73
2023/07/13 13:09:28;;;;;;;1.83;1.60;;;19.20;99.90;;;;;;4379009;28;659233;-73
2023/07/13 13:12:17;;;;;;;4.20;1.80;;;19.60;99.90;;;;;;4396655;28;658633;-70
2023/07/13 13:15:06;;;;;;;3.30;1.73;;;19.90;99.90;;;;;;4405395;28;658776;-74
2023/07/13 13:17:54;;;;;;;2.47;1.63;;;20.20;99.90;;;;;;4379425;28;658921;-73
2023/07/13 13:20:41;;;;;;;2.73;1.50;;;20.30;99.90;;;;;;4382496;28;658455;-73
2023/07/13 13:23:28;;;;;;;4.80;1.50;;;20.20;99.90;;;;;;4404060;28;659072;-74
2023/07/13 13:26:16;;;;;;;2.13;1.53;;;19.90;99.90;;;;;;4383964;28;659103;-69
2023/07/13 13:29:13;;;;;;;2.30;1.50;;;19.80;99.90;;;;;;4395644;28;659028;-73
2023/07/13 13:32:00;;;;;;;3.80;2.10;;;20.00;99.90;;;;;;4380901;28;658735;-69
2023/07/13 13:34:47;;;;;;;7.40;3.33;;;20.20;99.90;;;;;;4403312;28;659272;-73
2023/07/13 13:37:35;;;;;;;13.63;5.10;;;20.10;99.90;;;;;;4398551;28;658702;-69
2023/07/13 13:40:23;;;;;;;8.30;4.40;;;20.00;99.90;;;;;;4406989;28;660208;-72
2023/07/13 13:43:16;;;;;;;8.73;3.53;;;20.00;99.90;;;;;;4382847;28;658345;-68
2023/07/13 13:46:10;;;;;;;6.67;2.80;;;20.20;99.90;;;;;;4383287;28;658885;-72
2023/07/13 13:48:58;;;;;;;4.43;2.83;;;20.50;99.90;;;;;;4356670;28;658405;-70
2023/07/13 13:51:45;;;;;;;4.93;2.40;;;20.20;99.90;;;;;;4392759;28;659174;-69
2023/07/13 13:54:32;;;;;;;6.27;2.23;;;19.80;99.90;;;;;;4403872;28;659324;-71
2023/07/13 13:57:20;;;;;;;5.73;2.10;;;19.40;99.90;;;;;;4400934;28;658684;-69
2023/07/13 14:00:11;;;;;;;3.33;2.10;;;19.30;99.90;;;;;;4404455;28;659565;-72
2023/07/13 14:03:00;;;;;;;3.20;2.00;;;19.50;99.90;;;;;;4378111;28;659491;-70
2023/07/13 14:05:47;;;;;;;4.60;2.47;;;19.30;99.90;;;;;;4381479;28;659769;-72
2023/07/13 14:08:34;;;;;;;2.90;2.10;;;19.50;99.90;;;;;;4406442;28;658306;-69
2023/07/13 14:11:22;;;;;;;3.87;2.00;;;19.70;99.90;;;;;;4386347;28;659284;-71
2023/07/13 14:14:11;;;;;;;2.23;1.90;;;19.80;99.90;;;;;;4397874;28;658400;-72
2023/07/13 14:16:58;;;;;;;4.87;2.70;;;20.10;99.90;;;;;;4381580;28;659088;-71
2023/07/13 14:19:47;;;;;;;5.80;3.47;;;20.40;99.90;;;;;;4380313;28;658694;-68
2023/07/13 14:22:34;;;;;;;7.60;3.50;;;20.50;99.90;;;;;;4402419;28;658753;-70